Time;durP1;ratioP1;P1;durP2;ratioP2;P2;SDS_P1;SDS_P2;PMS_P1;PMS_P2;Temp;Humidity;BMP_temperature;BMP_pressure;BME280_temperature;BME280_humidity;BME280_pressure;Samples;Min_cycle;Max_cycle;Signal;HPM_P1;HPM_P2
2022/09/08 00:02:07;;;;;;;7.97;5.47;;;;;;;19.21;69.06;99839.66;4993432;28;20323;-70
2022/09/08 00:04:36;;;;;;;8.17;5.33;;;;;;;19.09;70.87;99833.53;4994309;28;20205;-68
2022/09/08 00:07:03;;;;;;;5.93;5.10;;;;;;;19.06;70.41;99842.09;4994286;28;20202;-68
2022/09/08 00:09:31;;;;;;;6.40;5.70;;;;;;;19.01;70.01;99811.56;4994966;28;20261;-71
2022/09/08 00:12:00;;;;;;;5.83;5.30;;;;;;;19.19;70.91;99836.38;4994239;28;20223;-71
2022/09/08 00:14:27;;;;;;;9.80;5.77;;;;;;;19.27;70.28;99844.09;4994982;28;20205;-69
2022/09/08 00:16:53;;;;;;;7.80;5.27;;;;;;;19.24;69.79;99841.09;4994970;28;20191;-68
2022/09/08 00:19:20;;;;;;;5.60;5.23;;;;;;;19.24;69.92;99841.09;4995125;28;20195;-69
2022/09/08 00:21:47;;;;;;;7.30;4.70;;;;;;;19.19;70.75;99835.59;4993776;28;20253;-69
2022/09/08 00:24:14;;;;;;;5.33;4.93;;;;;;;19.13;71.05;99831.16;4994347;28;20688;-68
2022/09/08 00:26:42;;;;;;;8.00;5.57;;;;;;;19.27;70.31;99832.50;4994798;28;20198;-68
2022/09/08 00:29:08;;;;;;;5.07;4.53;;;;;;;19.29;70.49;99841.16;4995023;28;20182;-68
2022/09/08 00:31:38;;;;;;;5.20;4.80;;;;;;;19.26;70.48;99837.09;4994881;28;20206;-68
2022/09/08 00:34:04;;;;;;;5.00;4.73;;;;;;;19.37;70.18;99838.06;4995010;28;20199;-66
2022/09/08 00:36:33;;;;;;;5.33;4.47;;;;;;;19.41;69.91;99844.59;4995123;28;20201;-68
2022/09/08 00:39:01;;;;;;;8.60;5.03;;;;;;;19.41;70.12;99850.81;4994883;28;20678;-68
2022/09/08 00:41:29;;;;;;;5.67;5.17;;;;;;;19.08;69.88;99831.88;4994702;28;20197;-68
2022/09/08 00:44:00;;;;;;;5.60;4.60;;;;;;;19.11;70.88;99855.63;4995069;28;20199;-68
2022/09/08 00:46:32;;;;;;;6.80;4.43;;;;;;;19.09;70.58;99846.16;4995172;28;20253;-68
2022/09/08 00:49:04;;;;;;;6.50;4.77;;;;;;;18.98;70.61;99865.88;4995799;28;20199;-67
2022/09/08 00:51:32;;;;;;;5.03;4.60;;;;;;;18.87;71.74;99866.75;4995054;28;20193;-67
2022/09/08 00:54:01;;;;;;;5.33;4.77;;;;;;;18.97;71.58;99870.47;4994800;28;20294;-68
2022/09/08 00:56:29;;;;;;;6.53;4.73;;;;;;;18.97;70.70;99865.09;4995106;28;20222;-68
2022/09/08 00:58:59;;;;;;;6.10;5.53;;;;;;;18.81;71.30;99867.72;4994325;28;20234;-68
2022/09/08 01:01:25;;;;;;;5.47;4.77;;;;;;;19.02;70.90;99867.03;4994562;28;20207;-68
2022/09/08 01:03:53;;;;;;;4.97;4.53;;;;;;;19.21;69.88;99869.28;4994405;28;20208;-68
2022/09/08 01:15:06;;;;;;;5.30;4.80;;;;;;;19.08;70.12;99876.84;4995075;28;20258;-68
2022/09/08 01:17:33;;;;;;;8.70;5.27;;;;;;;18.96;70.35;99871.53;4994669;28;20197;-68
2022/09/08 01:20:02;;;;;;;9.30;4.73;;;;;;;18.95;70.61;99872.56;4995194;28;20195;-68
2022/09/08 01:22:48;;;;;;;5.23;4.90;;;;;;;18.95;70.92;99867.19;4994719;28;20203;-68
2022/09/08 01:25:27;;;;;;;6.87;5.03;;;;;;;18.88;70.89;99865.69;4994105;28;20643;-68
2022/09/08 01:28:03;;;;;;;6.77;5.83;;;;;;;18.81;70.82;99870.41;4994098;28;20247;-68
2022/09/08 01:30:31;;;;;;;6.60;5.20;;;;;;;18.73;71.19;99863.53;4992170;28;20320;-69
2022/09/08 01:32:57;;;;;;;5.40;5.10;;;;;;;18.72;71.62;99866.47;4992319;28;20228;-68
2022/09/08 01:35:30;;;;;;;5.90;5.30;;;;;;;18.67;71.71;99863.69;4993119;28;20280;-71
2022/09/08 01:37:57;;;;;;;5.20;4.80;;;;;;;18.59;72.60;99851.41;4992587;28;20196;-68
2022/09/08 01:40:24;;;;;;;5.73;5.33;;;;;;;18.55;72.00;99849.44;4993617;28;20221;-70
2022/09/08 01:42:51;;;;;;;6.03;5.47;;;;;;;18.36;72.81;99858.72;4991170;28;20674;-69
2022/09/08 01:45:19;;;;;;;5.70;5.30;;;;;;;18.36;73.45;99850.66;4992087;28;20197;-68
2022/09/08 01:47:45;;;;;;;6.03;4.93;;;;;;;18.36;73.24;99847.97;4990936;28;20660;-67
2022/09/08 01:50:12;;;;;;;5.93;5.43;;;;;;;18.35;72.95;99843.63;4991123;28;20249;-71
2022/09/08 01:52:39;;;;;;;6.10;5.60;;;;;;;18.28;73.51;99842.91;4990742;28;20237;-68
2022/09/08 01:55:06;;;;;;;6.17;5.67;;;;;;;18.18;73.99;99843.50;4990520;28;20666;-67
2022/09/08 01:57:33;;;;;;;6.37;5.47;;;;;;;18.30;74.48;99851.56;4989755;28;20204;-68
2022/09/08 01:59:59;;;;;;;8.67;5.80;;;;;;;18.34;72.99;99848.19;4991303;28;20265;-68
2022/09/08 02:02:28;;;;;;;8.87;5.47;;;;;;;18.32;72.98;99852.97;4991914;28;20262;-68
2022/09/08 02:04:54;;;;;;;9.03;5.90;;;;;;;18.33;72.90;99851.13;4990866;28;20199;-68
2022/09/08 02:07:21;;;;;;;6.30;5.80;;;;;;;18.35;73.00;99843.63;4992933;28;20283;-68
2022/09/08 02:09:48;;;;;;;5.87;5.47;;;;;;;18.45;73.82;99841.97;4990405;28;20670;-68
2022/09/08 02:12:14;;;;;;;7.77;5.77;;;;;;;18.56;72.55;99834.91;4991252;28;20199;-68
2022/09/08 02:14:41;;;;;;;6.33;5.60;;;;;;;18.58;72.35;99838.22;4991840;28;20270;-68
2022/09/08 02:17:08;;;;;;;5.63;5.07;;;;;;;18.61;72.83;99832.31;4991650;28;20195;-68
2022/09/08 02:19:36;;;;;;;6.43;6.00;;;;;;;18.70;71.66;99833.59;4992217;28;20253;-68
2022/09/08 02:22:03;;;;;;;7.30;5.33;;;;;;;18.72;71.73;99836.84;4992955;28;20195;-69
2022/09/08 02:24:30;;;;;;;7.20;5.80;;;;;;;18.63;71.55;99841.00;4992700;28;20197;-67
2022/09/08 02:26:56;;;;;;;6.20;5.70;;;;;;;18.55;72.00;99844.06;4993698;28;20326;-69
2022/09/08 02:29:23;;;;;;;6.47;5.67;;;;;;;18.45;72.09;99835.75;4993001;28;20278;-68
2022/09/08 02:31:50;;;;;;;9.60;6.33;;;;;;;18.40;72.43;99835.66;4993053;28;20258;-68
2022/09/08 02:34:17;;;;;;;6.53;6.03;;;;;;;18.38;72.21;99835.09;4992551;28;20271;-68
2022/09/08 02:36:45;;;;;;;7.47;6.23;;;;;;;18.21;73.26;99828.81;4993265;28;20193;-68
2022/09/08 02:39:16;;;;;;;6.47;5.87;;;;;;;18.31;73.17;99826.31;4993095;28;20283;-68
2022/09/08 02:41:43;;;;;;;6.40;5.90;;;;;;;18.32;72.85;99826.06;4993254;28;20256;-68
2022/09/08 02:44:11;;;;;;;7.13;6.23;;;;;;;18.35;72.98;99822.13;4992436;28;20198;-68
2022/09/08 02:46:38;;;;;;;7.87;6.10;;;;;;;18.36;72.63;99821.88;4993144;28;20239;-67
2022/09/08 02:49:05;;;;;;;6.17;5.60;;;;;;;18.36;73.03;99818.38;4992682;28;20194;-67
2022/09/08 02:51:33;;;;;;;5.80;5.40;;;;;;;18.29;73.48;99817.69;4993359;28;20202;-67
2022/09/08 02:54:01;;;;;;;7.20;5.60;;;;;;;18.34;73.79;99823.19;4992818;28;20223;-68
2022/09/08 02:56:27;;;;;;;9.30;5.40;;;;;;;18.44;72.58;99832.28;4993181;28;20199;-68
2022/09/08 02:58:55;;;;;;;7.13;5.27;;;;;;;18.49;72.28;99831.53;4992206;28;20198;-68
2022/09/08 03:01:22;;;;;;;8.57;5.70;;;;;;;18.52;72.25;99839.16;4993301;28;20235;-68
2022/09/08 03:03:49;;;;;;;7.90;6.73;;;;;;;18.34;72.33;99809.75;4992579;28;20268;-67
2022/09/08 03:06:16;;;;;;;6.90;5.87;;;;;;;18.56;72.52;99826.84;4992859;28;20202;-68
2022/09/08 03:08:43;;;;;;;6.83;5.83;;;;;;;18.63;71.79;99835.59;4992611;28;20205;-68
2022/09/08 03:11:11;;;;;;;8.13;6.37;;;;;;;18.64;71.73;99837.22;4992518;28;20191;-68
2022/09/08 03:13:39;;;;;;;7.47;6.50;;;;;;;18.60;71.70;99846.84;4992184;28;20223;-68
2022/09/08 03:16:07;;;;;;;6.63;5.83;;;;;;;18.56;72.15;99843.00;4992860;28;20257;-68
2022/09/08 03:18:34;;;;;;;7.23;6.50;;;;;;;18.63;70.87;99841.78;4992469;28;20268;-68
2022/09/08 03:21:03;;;;;;;6.97;6.43;;;;;;;18.64;71.50;99848.84;4992188;28;20200;-68
2022/09/08 03:23:31;;;;;;;9.23;6.60;;;;;;;18.39;71.67;99852.88;4993130;28;20637;-68
2022/09/08 03:26:02;;;;;;;6.03;5.53;;;;;;;18.22;72.12;99854.63;4996195;28;20285;-68
2022/09/08 03:28:30;;;;;;;7.10;6.40;;;;;;;18.14;72.62;99846.94;4996581;28;20657;-71
2022/09/08 03:30:56;;;;;;;6.83;6.10;;;;;;;18.13;73.20;99850.69;4995118;28;20200;-68
2022/09/08 03:33:23;;;;;;;9.67;6.13;;;;;;;17.94;73.36;99847.31;4996390;28;20226;-67
2022/09/08 03:35:50;;;;;;;6.33;5.83;;;;;;;17.84;74.01;99849.75;4994678;28;20199;-68
2022/09/08 03:38:17;;;;;;;7.10;6.53;;;;;;;17.47;75.23;99834.88;4994069;28;20268;-68
2022/09/08 03:40:44;;;;;;;7.53;5.83;;;;;;;17.24;76.19;99828.63;4993781;28;20231;-69
2022/09/08 03:43:12;;;;;;;6.40;5.80;;;;;;;17.35;76.90;99835.91;4992338;28;20206;-69
2022/09/08 03:45:43;;;;;;;14.53;5.60;;;;;;;17.35;76.25;99842.06;4992369;28;20666;-69
2022/09/08 03:48:10;;;;;;;6.40;5.77;;;;;;;17.33;76.33;99838.00;4994730;28;20187;-69
2022/09/08 03:50:37;;;;;;;6.83;5.40;;;;;;;17.25;76.57;99835.63;4994215;28;20256;-69
2022/09/08 03:53:04;;;;;;;5.90;5.27;;;;;;;17.40;76.29;99838.72;4995712;28;20305;-68
2022/09/08 03:55:31;;;;;;;5.93;5.50;;;;;;;17.53;75.75;99833.16;4995444;28;20202;-67
2022/09/08 03:57:58;;;;;;;5.63;4.93;;;;;;;17.63;76.05;99836.06;4994692;28;20206;-69
2022/09/08 04:00:25;;;;;;;8.63;5.37;;;;;;;17.67;75.40;99845.28;4995072;28;20191;-68
2022/09/08 04:02:53;;;;;;;5.03;4.63;;;;;;;17.36;76.51;99849.06;4995141;28;20190;-68
2022/09/08 04:05:21;;;;;;;6.47;5.93;;;;;;;17.11;77.01;99840.38;4994785;28;20205;-67
2022/09/08 04:07:48;;;;;;;9.03;5.87;;;;;;;17.24;77.36;99836.69;4995298;28;20661;-67
2022/09/08 04:10:16;;;;;;;6.87;6.20;;;;;;;17.41;76.23;99846.56;4994928;28;20583;-67
2022/09/08 04:12:46;;;;;;;7.03;6.07;;;;;;;17.63;75.42;99849.50;4992618;28;20202;-68
2022/09/08 04:15:13;;;;;;;10.53;6.07;;;;;;;17.67;74.75;99853.34;4993033;28;20198;-70
2022/09/08 04:17:40;;;;;;;8.93;6.03;;;;;;;17.89;74.97;99854.44;4993514;28;20260;-68
2022/09/08 04:20:10;;;;;;;14.33;6.57;;;;;;;18.08;74.11;99858.59;4992965;28;20645;-69
2022/09/08 04:22:36;;;;;;;7.37;6.10;;;;;;;18.46;72.83;99851.66;4993788;28;20195;-70
2022/09/08 04:25:04;;;;;;;7.27;6.07;;;;;;;18.82;71.22;99855.88;4994138;28;20198;-68
2022/09/08 04:27:31;;;;;;;8.23;5.60;;;;;;;19.15;70.58;99864.06;4993887;28;20232;-68
2022/09/08 04:29:57;;;;;;;13.97;7.83;;;;;;;19.51;68.84;99869.84;4993835;28;20196;-69
2022/09/08 04:32:24;;;;;;;6.30;5.70;;;;;;;19.88;67.54;99868.28;4995039;28;20200;-69
2022/09/08 04:34:51;;;;;;;11.40;5.80;;;;;;;20.29;65.46;99880.47;4994018;28;20229;-71
2022/09/08 04:37:20;;;;;;;6.83;6.13;;;;;;;20.57;63.43;99871.41;4994606;28;20198;-69
2022/09/08 04:39:49;;;;;;;7.77;5.53;;;;;;;21.03;61.91;99882.50;4993415;28;20195;-72
2022/09/08 04:42:16;;;;;;;6.27;5.00;;;;;;;21.32;61.29;99883.06;4994310;28;20194;-68
2022/09/08 04:44:42;;;;;;;7.33;5.40;;;;;;;21.63;59.58;99893.91;4992802;28;20678;-72
2022/09/08 04:47:09;;;;;;;16.47;5.73;;;;;;;21.95;58.58;99900.13;4990353;28;20195;-70
2022/09/08 04:49:36;;;;;;;27.97;7.00;;;;;;;22.20;56.87;99900.31;4991816;28;20381;-72
2022/09/08 04:52:03;;;;;;;6.83;4.93;;;;;;;22.41;56.34;99910.16;4992530;28;20257;-72
2022/09/08 04:54:31;;;;;;;6.60;5.13;;;;;;;22.66;55.57;99914.94;4993049;28;20225;-74
2022/09/08 04:56:58;;;;;;;7.47;5.10;;;;;;;22.89;55.11;99920.72;4990522;28;20667;-70
2022/09/08 04:59:25;;;;;;;13.37;5.17;;;;;;;23.23;53.78;99921.94;4993533;28;20203;-73
2022/09/08 05:01:52;;;;;;;14.20;4.97;;;;;;;23.48;52.22;99932.81;4992863;28;20233;-71
2022/09/08 05:04:19;;;;;;;9.97;5.30;;;;;;;23.85;51.49;99929.88;4993866;28;20733;-70
2022/09/08 05:06:46;;;;;;;6.80;4.67;;;;;;;23.99;50.32;99926.38;4993411;28;20633;-72
2022/09/08 05:09:13;;;;;;;6.57;4.17;;;;;;;24.16;50.29;99924.19;4992757;28;20203;-73
2022/09/08 05:11:41;;;;;;;6.50;4.20;;;;;;;24.35;49.58;99919.00;4992670;28;20200;-68
2022/09/08 05:14:09;;;;;;;9.33;4.57;;;;;;;24.52;49.72;99912.16;4993073;28;20220;-68
2022/09/08 05:16:36;;;;;;;8.33;4.30;;;;;;;24.80;48.24;99922.41;4991482;28;20287;-66
2022/09/08 05:19:05;;;;;;;5.60;4.20;;;;;;;25.08;46.93;99908.13;4992595;28;20932;-66
2022/09/08 05:21:34;;;;;;;5.83;3.87;;;;;;;25.64;46.69;99905.88;4992984;28;20197;-67
2022/09/08 05:24:01;;;;;;;10.90;4.23;;;;;;;25.87;45.07;99907.06;4993377;28;20724;-67
2022/09/08 05:26:29;;;;;;;34.80;6.70;;;;;;;26.27;43.91;99898.53;4993173;28;20199;-65
2022/09/08 05:28:57;;;;;;;12.77;4.87;;;;;;;26.50;42.95;99901.28;4993358;28;20304;-65
2022/09/08 05:31:27;;;;;;;4.67;4.10;;;;;;;27.02;42.31;99900.38;4993020;28;20274;-66
2022/09/08 05:33:56;;;;;;;5.50;3.50;;;;;;;27.93;39.88;99911.59;4992580;28;20289;-67
2022/09/08 05:36:25;;;;;;;8.67;3.77;;;;;;;28.67;38.31;99908.59;4992742;28;20666;-66
2022/09/08 05:38:54;;;;;;;17.50;4.03;;;;;;;28.60;37.70;99909.00;4993450;28;20256;-65
2022/09/08 05:41:21;;;;;;;6.10;4.00;;;;;;;28.82;36.93;99914.56;4991589;28;20207;-70
2022/09/08 05:43:48;;;;;;;4.70;3.67;;;;;;;28.90;37.22;99921.22;4992107;28;20198;-67
2022/09/08 05:46:16;;;;;;;10.77;4.10;;;;;;;29.02;36.45;99918.81;4990275;28;20203;-68
2022/09/08 05:48:44;;;;;;;9.03;4.07;;;;;;;28.72;37.08;99914.78;4990555;28;20256;-67
2022/09/08 05:51:12;;;;;;;10.07;3.97;;;;;;;28.93;36.68;99909.69;4990955;28;20385;-69
2022/09/08 05:53:38;;;;;;;7.63;3.63;;;;;;;29.27;36.61;99903.78;4989655;28;20230;-69
2022/09/08 05:56:08;;;;;;;8.00;4.57;;;;;;;29.45;36.00;99911.00;4990209;28;20717;-66
2022/09/08 05:58:36;;;;;;;6.30;3.33;;;;;;;29.34;36.17;99902.22;4990046;28;20261;-67
2022/09/08 06:01:05;;;;;;;12.27;3.73;;;;;;;29.19;36.42;99897.09;4991349;28;20202;-67
2022/09/08 06:03:34;;;;;;;5.23;3.50;;;;;;;29.36;36.57;99896.44;4991767;28;20195;-65
2022/09/08 06:06:04;;;;;;;3.37;2.80;;;;;;;29.66;35.87;99902.03;4991998;28;20195;-66
2022/09/08 06:08:31;;;;;;;4.27;3.13;;;;;;;30.01;35.44;99897.59;4991782;28;20190;-66
2022/09/08 06:10:58;;;;;;;5.20;3.50;;;;;;;30.13;35.66;99895.88;4992175;28;20637;-68
2022/09/08 06:13:26;;;;;;;4.00;3.23;;;;;;;30.23;34.70;99903.06;4987219;28;20198;-72
2022/09/08 06:15:52;;;;;;;3.60;3.30;;;;;;;30.14;34.14;99900.28;4988874;28;20190;-68
2022/09/08 06:18:20;;;;;;;6.57;3.20;;;;;;;30.12;34.47;99902.50;4984881;28;20206;-68
2022/09/08 06:20:48;;;;;;;3.83;3.27;;;;;;;29.91;35.06;99901.41;4983126;28;20257;-69
2022/09/08 06:23:15;;;;;;;3.43;3.17;;;;;;;29.95;34.88;99902.41;4989981;28;20253;-68
2022/09/08 06:25:43;;;;;;;3.40;3.10;;;;;;;29.95;34.84;99898.84;4990255;28;20577;-67
2022/09/08 06:28:27;;;;;;;3.47;2.90;;;;;;;30.13;34.16;99906.84;4988871;28;20230;-69
2022/09/08 06:30:55;;;;;;;7.17;3.60;;;;;;;30.12;34.23;99901.69;4988441;28;20186;-67
2022/09/08 06:33:29;;;;;;;7.83;3.63;;;;;;;30.25;34.25;99901.63;4989378;28;20190;-68
2022/09/08 06:36:03;;;;;;;3.70;3.13;;;;;;;30.33;33.29;99897.31;4989538;28;20214;-66
2022/09/08 06:38:37;;;;;;;4.20;2.93;;;;;;;30.43;34.16;99906.09;4990552;28;20548;-66
2022/09/08 06:41:11;;;;;;;5.17;3.40;;;;;;;30.82;33.28;99911.56;4989029;28;20662;-66
2022/09/08 06:43:41;;;;;;;3.70;3.40;;;;;;;30.97;32.70;99910.31;4989957;28;20186;-66
2022/09/08 06:46:15;;;;;;;4.30;4.00;;;;;;;30.74;32.94;99901.38;4988266;28;20194;-66
2022/09/08 06:48:41;;;;;;;5.73;3.63;;;;;;;30.68;32.65;99893.56;4989612;28;20191;-69
2022/09/08 06:51:36;;;;;;;7.83;3.77;;;;;;;30.62;34.65;99900.34;4991147;28;20257;-67
2022/09/08 06:54:18;;;;;;;8.57;3.50;;;;;;;30.70;34.76;99905.88;4983963;28;20313;-69
2022/09/08 06:56:57;;;;;;;7.93;3.87;;;;;;;30.95;33.16;99910.63;4990665;28;20253;-69
2022/09/08 06:59:37;;;;;;;3.87;3.57;;;;;;;31.09;33.13;99900.31;4991275;28;20187;-68
2022/09/08 07:02:29;;;;;;;4.57;4.07;;;;;;;31.06;33.68;99903.72;4990028;28;20186;-68
2022/09/08 07:05:01;;;;;;;5.47;3.77;;;;;;;30.91;33.03;99903.38;4987594;28;20194;-70
2022/09/08 07:07:39;;;;;;;7.23;3.80;;;;;;;31.13;32.90;99909.53;4988361;28;20187;-69
2022/09/08 07:10:13;;;;;;;4.00;3.60;;;;;;;31.26;32.30;99914.09;4989567;28;20190;-69
2022/09/08 07:12:50;;;;;;;5.90;3.80;;;;;;;31.33;31.80;99911.69;4989189;28;20264;-67
2022/09/08 07:15:26;;;;;;;6.83;3.70;;;;;;;31.46;32.21;99910.72;4988117;28;20218;-65
2022/09/08 07:18:01;;;;;;;3.97;3.10;;;;;;;31.41;32.19;99910.91;4986866;28;20190;-67
2022/09/08 07:20:29;;;;;;;4.57;3.60;;;;;;;31.62;31.35;99911.84;4988857;28;20647;-64
2022/09/08 07:23:02;;;;;;;4.50;3.67;;;;;;;31.44;30.83;99912.19;4987096;28;20238;-66
2022/09/08 07:25:33;;;;;;;9.73;3.87;;;;;;;31.33;31.42;99914.44;4988415;28;20572;-70
2022/09/08 07:28:04;;;;;;;11.70;4.10;;;;;;;31.59;32.53;99911.69;4987506;28;20702;-71
2022/09/08 07:30:31;;;;;;;6.13;3.80;;;;;;;31.71;32.38;99907.16;4989857;28;20194;-67
2022/09/08 07:33:03;;;;;;;7.97;3.53;;;;;;;31.72;30.67;99899.72;4988724;28;20198;-67
2022/09/08 07:35:45;;;;;;;7.30;4.00;;;;;;;31.90;30.77;99906.84;4988499;28;20822;-65
2022/09/08 07:38:19;;;;;;;7.87;3.97;;;;;;;31.90;31.06;99906.84;4990645;28;20182;-73
2022/09/08 07:40:49;;;;;;;6.87;3.70;;;;;;;31.77;30.65;99908.63;4980826;28;20199;-66
2022/09/08 07:43:16;;;;;;;8.07;3.87;;;;;;;31.58;30.20;99913.63;4989936;28;20241;-71
2022/09/08 07:45:48;;;;;;;5.20;3.70;;;;;;;31.63;31.66;99907.97;4991033;28;20257;-68
2022/09/08 07:48:24;;;;;;;8.63;3.93;;;;;;;31.52;31.17;99914.13;4990042;28;20284;-73
2022/09/08 07:51:03;;;;;;;5.83;4.07;;;;;;;31.20;32.19;99915.34;4987824;28;20662;-69
2022/09/08 07:53:50;;;;;;;7.17;3.40;;;;;;;31.26;31.35;99919.59;4989588;28;20233;-70
2022/09/08 07:56:22;;;;;;;8.33;4.40;;;;;;;31.27;31.37;99918.47;4988944;28;20215;-71
2022/09/08 07:59:05;;;;;;;4.23;3.57;;;;;;;31.44;31.24;99915.72;4990625;28;20191;-71
2022/09/08 08:01:37;;;;;;;4.57;4.13;;;;;;;31.55;31.50;99917.03;4990942;28;20191;-68
2022/09/08 08:04:30;;;;;;;4.97;4.00;;;;;;;31.46;31.39;99910.72;4991107;28;20269;-65
2022/09/08 08:07:00;;;;;;;4.33;4.03;;;;;;;31.53;30.84;99913.00;4991150;28;20346;-69
2022/09/08 08:09:39;;;;;;;4.20;3.90;;;;;;;31.29;31.49;99913.47;4992603;28;20183;-67
2022/09/08 08:12:13;;;;;;;6.73;4.10;;;;;;;31.22;31.77;99913.09;4994149;28;20194;-71
2022/09/08 08:14:47;;;;;;;29.70;6.23;;;;;;;31.18;31.46;99914.88;4994278;28;20214;-70
2022/09/08 08:17:32;;;;;;;5.43;3.67;;;;;;;31.02;31.85;99908.22;4992818;28;20190;-70
2022/09/08 08:20:21;;;;;;;4.17;3.83;;;;;;;30.73;32.71;99913.47;4993689;28;20273;-68
2022/09/08 08:23:17;;;;;;;4.83;4.33;;;;;;;30.06;33.82;99901.03;4991231;28;20206;-71
2022/09/08 08:25:52;;;;;;;6.83;4.43;;;;;;;30.23;33.71;99906.63;4988692;28;20206;-68
2022/09/08 08:28:20;;;;;;;6.83;4.13;;;;;;;30.38;33.53;99900.72;4992564;28;20229;-68
2022/09/08 08:30:59;;;;;;;5.47;3.63;;;;;;;30.76;32.97;99898.31;4993049;28;20728;-70
2022/09/08 08:33:30;;;;;;;4.93;3.60;;;;;;;30.93;32.85;99890.94;4992655;28;20241;-73
2022/09/08 08:36:04;;;;;;;3.97;3.67;;;;;;;31.09;31.55;99896.75;4991012;28;20216;-67
2022/09/08 08:38:34;;;;;;;9.13;3.93;;;;;;;31.10;32.01;99888.22;4990418;28;20190;-68
2022/09/08 08:41:08;;;;;;;9.03;4.27;;;;;;;30.94;31.78;99884.31;4992304;28;20195;-72
2022/09/08 08:44:06;;;;;;;5.47;3.77;;;;;;;30.97;31.72;99891.91;4993865;28;20651;-74
2022/09/08 08:47:08;;;;;;;5.00;3.93;;;;;;;31.11;31.39;99887.06;4973578;28;20673;-69
2022/09/08 08:50:12;;;;;;;8.90;3.73;;;;;;;31.37;31.52;99876.97;4972902;28;20195;-70
2022/09/08 08:52:50;;;;;;;7.83;3.53;;;;;;;31.45;30.55;99878.91;4973536;28;20198;-72
2022/09/08 08:55:41;;;;;;;6.73;3.93;;;;;;;31.34;32.57;99861.13;4991827;28;20621;-68
2022/09/08 08:58:38;;;;;;;5.13;3.47;;;;;;;31.45;32.27;99862.44;4992108;28;20199;-77
2022/09/08 09:01:17;;;;;;;7.23;3.90;;;;;;;31.56;31.90;99852.69;4986688;28;20285;-74
2022/09/08 09:03:55;;;;;;;6.47;3.97;;;;;;;31.62;31.71;99850.59;4993585;28;20650;-68
2022/09/08 09:06:37;;;;;;;3.93;3.63;;;;;;;31.81;31.27;99854.63;4992228;28;20245;-69
2022/09/08 09:09:37;;;;;;;46.90;6.10;;;;;;;31.77;30.61;99859.16;4991404;28;20198;-72
2022/09/08 09:12:28;;;;;;;6.17;3.80;;;;;;;31.61;30.18;99852.53;4992206;28;20191;-69
2022/09/08 09:15:22;;;;;;;5.53;3.60;;;;;;;31.57;30.33;99854.34;4991631;28;20207;-69
2022/09/08 09:18:16;;;;;;;4.37;4.07;;;;;;;31.60;30.82;99842.69;4992139;28;20187;-68
2022/09/08 09:20:56;;;;;;;4.80;4.40;;;;;;;31.34;30.76;99838.34;4988424;28;20186;-67
2022/09/08 09:23:37;;;;;;;12.20;5.20;;;;;;;31.23;31.17;99831.59;4993379;28;20270;-67
2022/09/08 09:26:19;;;;;;;5.20;4.07;;;;;;;30.58;31.75;99831.56;4992905;28;20245;-72
2022/09/08 09:28:55;;;;;;;4.27;3.87;;;;;;;30.67;31.57;99813.22;4985957;28;20253;-69
2022/09/08 09:32:04;;;;;;;7.27;3.97;;;;;;;30.58;31.80;99815.13;4990303;28;20733;-70
2022/09/08 09:35:10;;;;;;;3.77;3.53;;;;;;;30.73;31.25;99822.94;4986793;28;20220;-69
2022/09/08 09:38:05;;;;;;;5.43;4.07;;;;;;;30.89;31.37;99815.88;4976403;28;20194;-69
2022/09/08 09:40:56;;;;;;;11.40;4.57;;;;;;;30.97;31.23;99814.25;4991958;28;20297;-78
2022/09/08 09:43:34;;;;;;;4.43;3.80;;;;;;;30.72;31.39;99815.84;4992761;28;20273;-72
2022/09/08 09:46:46;;;;;;;6.83;3.97;;;;;;;31.00;30.64;99811.69;4992738;28;20195;-71
2022/09/08 09:49:28;;;;;;;4.37;4.10;;;;;;;31.02;30.58;99812.16;4930741;29;20655;-80
2022/09/08 09:52:07;;;;;;;5.77;4.00;;;;;;;30.85;30.94;99803.09;4969434;28;20203;-73
2022/09/08 09:55:10;;;;;;;3.87;3.57;;;;;;;31.00;30.28;99810.88;4971991;28;20670;-73
2022/09/08 09:58:09;;;;;;;5.03;3.37;;;;;;;30.72;31.05;99804.88;4961514;28;20273;-71
2022/09/08 10:00:58;;;;;;;7.10;3.60;;;;;;;30.62;30.57;99801.59;4967039;28;20683;-74
2022/09/08 10:04:02;;;;;;;4.43;3.40;;;;;;;30.74;31.38;99794.38;4973026;28;20707;-78
2022/09/08 10:06:51;;;;;;;5.03;3.80;;;;;;;30.88;30.88;99795.06;4970146;28;20210;-73
2022/09/08 10:09:57;;;;;;;4.23;3.90;;;;;;;31.04;31.18;99793.44;4956278;28;20278;-74
2022/09/08 10:12:57;;;;;;;9.50;4.17;;;;;;;31.25;31.45;99780.69;4972513;28;20246;-72
2022/09/08 10:15:55;;;;;;;7.60;3.40;;;;;;;31.45;30.52;99791.00;4964613;28;20733;-78
2022/09/08 10:18:50;;;;;;;5.80;3.43;;;;;;;31.11;31.72;99780.00;4972720;28;20199;-81
2022/09/08 10:21:48;;;;;;;7.00;3.90;;;;;;;31.30;31.15;99777.78;4991121;28;20674;-70
2022/09/08 10:24:47;;;;;;;6.77;3.57;;;;;;;31.24;30.43;99767.28;4937681;28;20209;-74
2022/09/08 10:27:48;;;;;;;10.53;3.70;;;;;;;31.46;30.32;99770.66;4991965;28;20773;-74
2022/09/08 10:30:31;;;;;;;5.90;3.77;;;;;;;31.07;30.58;99750.81;4988149;28;20198;-73
2022/09/08 10:33:31;;;;;;;6.00;3.43;;;;;;;30.82;31.31;99748.88;4989689;28;20249;-76
2022/09/08 10:36:06;;;;;;;4.10;3.63;;;;;;;30.00;32.93;99743.31;4985270;28;20799;-72
2022/09/08 10:38:53;;;;;;;5.50;3.53;;;;;;;29.93;33.13;99748.44;4988714;28;20261;-76
2022/09/08 10:41:56;;;;;;;7.67;3.67;;;;;;;30.25;32.01;99737.16;4985233;28;20254;-73
2022/09/08 10:44:46;;;;;;;10.37;3.97;;;;;;;30.18;32.34;99739.56;4978341;28;20260;-76
2022/09/08 10:48:03;;;;;;;3.73;3.37;;;;;;;30.05;32.95;99734.97;4961158;28;20187;-74
2022/09/08 10:50:32;;;;;;;7.37;3.30;;;;;;;30.27;32.22;99742.31;4964476;28;20194;-75
2022/09/08 10:53:19;;;;;;;5.37;3.70;;;;;;;30.38;32.26;99727.97;4988264;28;20281;-78
2022/09/08 10:56:05;;;;;;;4.63;4.03;;;;;;;30.62;32.15;99722.84;4981580;28;20214;-76
2022/09/08 10:59:01;;;;;;;9.97;6.00;;;;;;;30.87;31.74;99713.84;4988795;28;20662;-74
2022/09/08 11:01:56;;;;;;;4.70;4.27;;;;;;;30.67;32.43;99706.25;4986249;28;20728;-76
2022/09/08 11:04:57;;;;;;;6.40;3.83;;;;;;;30.37;32.48;99712.66;4988662;28;20609;-72
2022/09/08 11:07:45;;;;;;;6.33;4.30;;;;;;;30.52;31.85;99695.75;4990015;28;20268;-73
2022/09/08 11:10:25;;;;;;;5.23;3.83;;;;;;;30.61;32.28;99698.47;4975555;28;20646;-73
2022/09/08 11:13:11;;;;;;;5.37;4.10;;;;;;;30.51;32.21;99655.75;4983868;28;20566;-72
2022/09/08 11:16:06;;;;;;;6.80;4.10;;;;;;;30.80;31.93;99686.09;4989196;28;20220;-72
2022/09/08 11:18:47;;;;;;;7.43;3.83;;;;;;;30.70;31.89;99680.94;4992518;28;20245;-71
2022/09/08 11:21:26;;;;;;;3.80;3.50;;;;;;;30.89;31.53;99667.69;4991479;28;20233;-75
2022/09/08 11:24:08;;;;;;;4.97;3.97;;;;;;;31.09;32.02;99666.19;5004531;28;20186;-71
2022/09/08 11:26:46;;;;;;;8.37;4.33;;;;;;;31.19;31.48;99674.09;5007248;28;20249;-73
2022/09/08 11:29:16;;;;;;;6.93;3.70;;;;;;;30.65;32.48;99678.31;4992051;28;20237;-75
2022/09/08 11:31:58;;;;;;;5.03;4.20;;;;;;;30.70;32.17;99666.41;4973440;28;20254;-74
2022/09/08 11:34:48;;;;;;;4.10;2.97;;;;;;;30.85;32.69;99661.22;4973007;28;20685;-71
2022/09/08 11:37:47;;;;;;;3.87;3.57;;;;;;;30.59;32.53;99663.16;4972799;28;20730;-72
2022/09/08 11:40:52;;;;;;;7.23;3.63;;;;;;;30.69;32.81;99654.63;4972913;28;20667;-71
2022/09/08 11:43:29;;;;;;;7.70;3.20;;;;;;;30.68;32.60;99666.72;4973377;28;20274;-69
2022/09/08 11:46:14;;;;;;;3.50;3.20;;;;;;;30.18;32.84;99653.78;4976749;28;20191;-70
2022/09/08 11:49:01;;;;;;;5.30;3.60;;;;;;;30.19;33.83;99669.09;4976756;28;20718;-73
2022/09/08 11:51:44;;;;;;;4.77;3.27;;;;;;;30.34;32.99;99661.19;4977058;28;20245;-75
2022/09/08 11:54:33;;;;;;;5.67;3.30;;;;;;;30.53;32.43;99652.69;4977706;28;20564;-72
2022/09/08 11:57:21;;;;;;;3.90;3.33;;;;;;;30.51;32.82;99652.19;4976950;28;20273;-71
2022/09/08 12:00:19;;;;;;;3.10;2.90;;;;;;;30.46;33.36;99642.16;4976509;28;20652;-71
2022/09/08 12:03:19;;;;;;;3.70;3.30;;;;;;;30.25;34.53;99635.72;4974652;28;20254;-69
2022/09/08 12:05:59;;;;;;;8.57;3.93;;;;;;;30.43;33.58;99631.06;4976637;28;20199;-70
2022/09/08 12:08:46;;;;;;;8.57;3.33;;;;;;;30.57;33.91;99634.44;4977718;28;20241;-70
2022/09/08 12:11:21;;;;;;;4.10;3.30;;;;;;;29.97;34.71;99634.34;4985379;28;20558;-70
2022/09/08 12:13:55;;;;;;;6.13;3.63;;;;;;;30.10;33.91;99636.19;4996541;28;20214;-69
2022/09/08 12:16:40;;;;;;;3.67;3.27;;;;;;;30.00;33.94;99627.44;4994767;28;20221;-68
2022/09/08 12:19:31;;;;;;;6.30;3.33;;;;;;;29.98;34.02;99618.72;4995533;28;20190;-70